Time;durP1;ratioP1;P1;durP2;ratioP2;P2;SDS_P1;SDS_P2;PMS_P1;PMS_P2;Temp;Humidity;BMP_temperature;BMP_pressure;BME280_temperature;BME280_humidity;BME280_pressure;Samples;Min_cycle;Max_cycle;Signal;HPM_P1;HPM_P2
2022/04/06 00:00:08;;;;;;;;;;;;;;;9.96;64.33;100188.13;5056943;28;19960;-76
2022/04/06 00:02:33;;;;;;;;;;;;;;;10.02;63.85;100181.97;5053158;28;19916;-79
2022/04/06 00:05:00;;;;;;;;;;;;;;;10.01;64.34;100177.66;5043221;28;19940;-78
2022/04/06 00:07:26;;;;;;;;;;;;;;;9.86;64.90;100174.56;5052398;28;19916;-79
2022/04/06 00:09:51;;;;;;;;;;;;;;;9.92;62.75;100170.13;5043957;28;19922;-79
2022/04/06 00:12:16;;;;;;;;;;;;;;;9.96;62.42;100169.97;5059063;28;20020;-79
2022/04/06 00:14:41;;;;;;;;;;;;;;;9.91;63.92;100166.66;5043859;28;20399;-76
2022/04/06 00:17:07;;;;;;;;;;;;;;;9.89;64.41;100168.44;5048666;28;19928;-76
2022/04/06 00:19:33;;;;;;;;;;;;;;;9.90;64.54;100163.22;5048530;28;20385;-79
2022/04/06 00:21:58;;;;;;;;;;;;;;;9.80;65.03;100160.91;5056190;28;20325;-79
2022/04/06 00:24:24;;;;;;;;;;;;;;;9.90;62.76;100155.44;5049298;28;19928;-79
2022/04/06 00:26:49;;;;;;;;;;;;;;;9.83;63.77;100156.47;5046454;28;19928;-79
2022/04/06 00:29:14;;;;;;;;;;;;;;;9.92;62.49;100152.81;5046516;28;19957;-79
2022/04/06 00:31:39;;;;;;;;;;;;;;;9.91;62.21;100158.88;5052293;28;19943;-79
2022/04/06 00:34:05;;;;;;;;;;;;;;;9.81;63.34;100155.66;5065816;28;19958;-79
2022/04/06 00:36:30;;;;;;;;;;;;;;;9.90;62.39;100150.25;5043279;28;20465;-79
2022/04/06 00:38:56;;;;;;;;;;;;;;;9.69;63.33;100157.75;5056703;28;20020;-78
2022/04/06 00:41:21;;;;;;;;;;;;;;;9.89;61.68;100151.16;5052616;28;19925;-79
2022/04/06 00:44:06;;;;;;;;;;;;;;;9.89;63.28;100152.88;5044776;28;20292;-78
2022/04/06 00:46:31;;;;;;;;;;;;;;;9.78;62.62;100160.09;5038651;28;19917;-79
2022/04/06 00:48:57;;;;;;;;;;;;;;;9.80;62.85;100155.72;5051102;28;19975;-78
2022/04/06 00:51:22;;;;;;;;;;;;;;;9.88;62.58;100153.75;5029399;28;19963;-79
2022/04/06 00:53:47;;;;;;;;;;;;;;;9.91;62.81;100151.09;5045012;28;19924;-76
2022/04/06 00:56:15;;;;;;;;;;;;;;;9.87;63.56;100152.03;5042395;28;20424;-76
2022/04/06 00:58:41;;;;;;;;;;;;;;;9.90;63.12;100141.59;5049518;28;19916;-76
2022/04/06 01:01:06;;;;;;;;;;;;;;;9.84;63.33;100142.59;5034405;28;20301;-79
2022/04/06 01:03:31;;;;;;;;;;;;;;;9.89;61.84;100139.91;5043836;28;19929;-79
2022/04/06 01:05:56;;;;;;;;;;;;;;;9.90;62.87;100144.19;5037296;28;20382;-79
2022/04/06 01:08:22;;;;;;;;;;;;;;;9.95;61.39;100138.91;5045345;28;19924;-79
2022/04/06 01:10:48;;;;;;;;;;;;;;;9.90;62.64;100139.00;5054428;28;20368;-79
2022/04/06 01:13:13;;;;;;;;;;;;;;;9.98;62.21;100131.88;5063998;28;20380;-79
2022/04/06 01:15:38;;;;;;;;;;;;;;;9.86;63.01;100135.66;5046435;28;19975;-76
2022/04/06 01:18:04;;;;;;;;;;;;;;;9.83;63.83;100140.06;5045987;28;19948;-78
2022/04/06 01:20:29;;;;;;;;;;;;;;;9.87;61.98;100128.69;5065895;28;20140;-79
2022/04/06 01:22:54;;;;;;;;;;;;;;;9.97;62.20;100126.72;5048472;28;19934;-78
2022/04/06 01:25:20;;;;;;;;;;;;;;;9.94;62.69;100129.41;5036763;28;19951;-79
2022/04/06 01:27:45;;;;;;;;;;;;;;;9.97;61.78;100131.91;5053507;28;19951;-79
2022/04/06 01:30:10;;;;;;;;;;;;;;;9.91;62.65;100130.34;5045290;28;19925;-79
2022/04/06 01:32:36;;;;;;;;;;;;;;;9.86;63.71;100129.59;5040933;28;19921;-76
2022/04/06 01:35:03;;;;;;;;;;;;;;;9.90;64.54;100126.03;5044746;28;19935;-76
2022/04/06 01:37:30;;;;;;;;;;;;;;;9.83;63.48;100133.13;5049998;28;20585;-78
2022/04/06 01:39:56;;;;;;;;;;;;;;;9.81;63.32;100128.88;5049723;28;19916;-76
2022/04/06 01:42:21;;;;;;;;;;;;;;;9.79;62.61;100134.09;5056364;28;20589;-78
2022/04/06 01:44:48;;;;;;;;;;;;;;;9.98;60.86;100124.09;5052219;28;19929;-78
2022/04/06 01:47:17;;;;;;;;;;;;;;;9.84;62.56;100115.81;5048868;28;20027;-79
2022/04/06 01:52:27;;;;;;;;;;;;;;;9.86;61.86;100116.63;5047130;28;19924;-79
2022/04/06 01:55:00;;;;;;;;;;;;;;;9.92;61.05;100118.22;5053014;28;19925;-78
2022/04/06 01:57:26;;;;;;;;;;;;;;;9.88;61.72;100107.91;5057186;28;20026;-79
2022/04/06 01:59:52;;;;;;;;;;;;;;;9.78;63.09;100116.81;5043613;28;20377;-79
2022/04/06 02:02:18;;;;;;;;;;;;;;;9.88;60.84;100107.06;5035153;28;19973;-76
2022/04/06 02:04:44;;;;;;;;;;;;;;;9.87;61.77;100105.34;5058109;28;19924;-79
2022/04/06 02:07:10;;;;;;;;;;;;;;;9.91;62.09;100109.59;5027241;28;19917;-78
2022/04/06 02:09:36;;;;;;;;;;;;;;;9.81;62.05;100100.34;5043172;28;19924;-79
2022/04/06 02:12:01;;;;;;;;;;;;;;;9.87;62.57;100105.34;5051191;28;19925;-79
2022/04/06 02:14:27;;;;;;;;;;;;;;;9.77;62.88;100101.31;5066556;28;20411;-78
2022/04/06 02:16:52;;;;;;;;;;;;;;;9.87;62.62;100095.81;5045096;28;20593;-78
2022/04/06 02:19:18;;;;;;;;;;;;;;;9.84;61.50;100095.06;5049410;28;20396;-78
2022/04/06 02:21:43;;;;;;;;;;;;;;;9.88;60.82;100094.06;5056794;28;19994;-78
2022/04/06 02:24:08;;;;;;;;;;;;;;;9.85;61.51;100099.34;5065404;28;19925;-78
2022/04/06 02:26:34;;;;;;;;;;;;;;;9.88;61.34;100094.06;5042950;28;19936;-78
2022/04/06 02:29:00;;;;;;;;;;;;;;;9.80;61.06;100093.47;5051107;28;20444;-78
2022/04/06 02:31:25;;;;;;;;;;;;;;;9.88;61.89;100097.53;5049162;28;20602;-76
2022/04/06 02:33:51;;;;;;;;;;;;;;;9.86;61.60;100088.94;5053075;28;19920;-78
2022/04/06 02:36:16;;;;;;;;;;;;;;;9.80;62.27;100096.06;5064129;28;19929;-78
2022/04/06 02:38:41;;;;;;;;;;;;;;;9.84;61.06;100087.28;5054611;28;20497;-78
2022/04/06 02:41:08;;;;;;;;;;;;;;;9.82;61.15;100092.50;5051051;28;19936;-78
2022/04/06 02:43:34;;;;;;;;;;;;;;;9.78;61.37;100093.50;5060334;28;19940;-78
2022/04/06 02:46:00;;;;;;;;;;;;;;;9.72;62.14;100087.66;5037541;28;19920;-78
2022/04/06 02:48:25;;;;;;;;;;;;;;;9.86;61.35;100085.50;5050340;28;19924;-76
2022/04/06 02:50:50;;;;;;;;;;;;;;;9.91;61.02;100091.44;5053182;28;19979;-78
2022/04/06 02:53:16;;;;;;;;;;;;;;;9.82;61.62;100083.88;5062369;28;19924;-78
2022/04/06 02:55:41;;;;;;;;;;;;;;;9.82;62.08;100079.53;5055995;28;20234;-78
2022/04/06 02:58:06;;;;;;;;;;;;;;;9.78;62.33;100084.88;5052502;28;19994;-78
2022/04/06 03:00:32;;;;;;;;;;;;;;;9.77;61.79;100083.16;5029842;28;19932;-78
2022/04/06 03:03:00;;;;;;;;;;;;;;;9.86;61.60;100073.38;5059077;28;20469;-78
2022/04/06 03:05:26;;;;;;;;;;;;;;;9.77;61.46;100075.38;5063670;28;19920;-78
2022/04/06 03:07:51;;;;;;;;;;;;;;;9.85;61.78;100074.28;5049228;28;19936;-78
2022/04/06 03:10:17;;;;;;;;;;;;;;;9.82;62.03;100070.91;5062405;28;20355;-78
2022/04/06 03:12:42;;;;;;;;;;;;;;;9.90;62.63;100068.97;5057448;28;20007;-78
2022/04/06 03:15:08;;;;;;;;;;;;;;;9.89;61.52;100069.84;5055956;28;19925;-78
2022/04/06 03:17:34;;;;;;;;;;;;;;;9.80;61.33;100068.38;5061430;28;19925;-78
2022/04/06 03:19:59;;;;;;;;;;;;;;;9.85;62.47;100070.81;5056798;28;19936;-78
2022/04/06 03:22:24;;;;;;;;;;;;;;;9.76;62.70;100068.50;5052942;28;19924;-78
2022/04/06 03:24:50;;;;;;;;;;;;;;;9.80;62.02;100064.94;5064197;28;19920;-78
2022/04/06 03:27:15;;;;;;;;;;;;;;;9.81;61.80;100062.28;5057561;28;20293;-78
2022/04/06 03:29:40;;;;;;;;;;;;;;;9.83;61.16;100057.91;5051886;28;19924;-78
2022/04/06 03:32:06;;;;;;;;;;;;;;;9.84;61.70;100056.16;5055805;28;19924;-78
2022/04/06 03:34:32;;;;;;;;;;;;;;;9.74;62.01;100055.59;5052322;28;20003;-78
2022/04/06 03:36:57;;;;;;;;;;;;;;;9.85;60.10;100050.94;5050618;28;20362;-78
2022/04/06 03:39:22;;;;;;;;;;;;;;;9.78;60.61;100062.38;5063972;28;19996;-78
2022/04/06 03:41:47;;;;;;;;;;;;;;;9.82;60.99;100060.53;5046186;28;19925;-78
2022/04/06 03:44:13;;;;;;;;;;;;;;;9.62;60.54;100055.06;5057963;28;20565;-78
2022/04/06 03:46:38;;;;;;;;;;;;;;;9.75;59.48;100053.84;5054570;28;19925;-78
2022/04/06 03:49:03;;;;;;;;;;;;;;;9.82;59.94;100047.56;5028190;28;20331;-78
2022/04/06 03:51:29;;;;;;;;;;;;;;;9.71;60.66;100063.44;5056297;28;20003;-79
2022/04/06 03:53:54;;;;;;;;;;;;;;;9.76;60.41;100068.50;5056869;28;19929;-78
2022/04/06 03:56:19;;;;;;;;;;;;;;;9.91;59.18;100057.72;5050695;28;20004;-79
2022/04/06 03:58:44;;;;;;;;;;;;;;;9.86;59.94;100063.00;5048662;28;20031;-78
2022/04/06 04:01:10;;;;;;;;;;;;;;;9.88;58.29;100052.56;5055734;28;20018;-78
2022/04/06 04:03:35;;;;;;;;;;;;;;;9.80;59.16;100063.19;5052469;28;19925;-76
2022/04/06 04:06:01;;;;;;;;;;;;;;;9.83;58.23;100057.06;5038164;28;19929;-76
2022/04/06 04:08:27;;;;;;;;;;;;;;;9.73;60.08;100066.84;5049124;28;19931;-78
2022/04/06 04:10:53;;;;;;;;;;;;;;;9.87;58.77;100056.06;5052997;28;19921;-78
2022/04/06 04:13:18;;;;;;;;;;;;;;;9.69;60.76;100064.41;5050534;28;20015;-78
2022/04/06 04:15:44;;;;;;;;;;;;;;;9.60;60.63;100070.66;5053933;28;19961;-78
2022/04/06 04:18:09;;;;;;;;;;;;;;;9.71;58.80;100065.19;5053926;28;19937;-76
2022/04/06 04:20:34;;;;;;;;;;;;;;;9.74;59.74;100065.09;5052080;28;19932;-78
2022/04/06 04:23:00;;;;;;;;;;;;;;;9.68;58.99;100057.50;5054335;28;19970;-78
2022/04/06 04:25:26;;;;;;;;;;;;;;;9.69;58.94;100062.63;5048720;28;20479;-78
2022/04/06 04:27:51;;;;;;;;;;;;;;;9.83;58.66;100054.47;5052879;28;19979;-78
2022/04/06 04:30:17;;;;;;;;;;;;;;;9.72;59.63;100054.75;5048381;28;19924;-78
2022/04/06 04:32:42;;;;;;;;;;;;;;;9.66;60.13;100047.16;5051505;28;19928;-76
2022/04/06 04:35:08;;;;;;;;;;;;;;;9.68;59.38;100058.34;5054372;28;20377;-76
2022/04/06 04:37:34;;;;;;;;;;;;;;;9.74;59.93;100054.72;5045231;28;19968;-78
2022/04/06 04:40:00;;;;;;;;;;;;;;;9.80;58.99;100041.59;5030969;28;19924;-78
2022/04/06 04:42:27;;;;;;;;;;;;;;;9.67;59.87;100050.59;5043760;28;20464;-78
2022/04/06 04:44:53;;;;;;;;;;;;;;;9.72;59.85;100051.34;5046587;28;19928;-78
2022/04/06 04:47:18;;;;;;;;;;;;;;;9.76;59.60;100046.00;5045422;28;20561;-78
2022/04/06 04:49:43;;;;;;;;;;;;;;;9.55;59.95;100045.75;5050908;28;20052;-78
2022/04/06 04:52:09;;;;;;;;;;;;;;;9.73;59.06;100047.81;5046960;28;19948;-78
2022/04/06 04:54:36;;;;;;;;;;;;;;;9.73;59.23;100053.88;5048090;28;19974;-76
2022/04/06 04:57:01;;;;;;;;;;;;;;;9.65;59.63;100048.06;5051191;28;19932;-78
2022/04/06 04:59:27;;;;;;;;;;;;;;;9.72;59.69;100053.94;5051820;28;19929;-79
2022/04/06 05:01:52;;;;;;;;;;;;;;;9.73;59.80;100053.88;5050402;28;20401;-79
2022/04/06 05:04:17;;;;;;;;;;;;;;;9.65;59.34;100049.81;5052809;28;20247;-79
2022/04/06 05:06:43;;;;;;;;;;;;;;;9.62;59.71;100042.97;5051898;28;19917;-78
2022/04/06 05:09:08;;;;;;;;;;;;;;;9.75;57.98;100039.09;5050908;28;19925;-78
2022/04/06 05:11:33;;;;;;;;;;;;;;;9.79;59.68;100034.69;5050476;28;19929;-76
2022/04/06 05:13:59;;;;;;;;;;;;;;;9.61;59.15;100045.59;5053021;28;19928;-78
2022/04/06 05:16:24;;;;;;;;;;;;;;;9.71;57.93;100034.94;5054782;28;19928;-78
2022/04/06 05:18:49;;;;;;;;;;;;;;;9.86;56.85;100033.63;5048981;28;19960;-78
2022/04/06 05:21:15;;;;;;;;;;;;;;;9.67;59.20;100043.66;5044764;28;20377;-78
2022/04/06 05:23:41;;;;;;;;;;;;;;;9.66;57.54;100041.13;5030819;28;19924;-76
2022/04/06 05:26:06;;;;;;;;;;;;;;;9.68;57.36;100032.41;5041504;28;19921;-76
2022/04/06 05:28:31;;;;;;;;;;;;;;;9.72;57.46;100036.59;5063013;28;19943;-76
2022/04/06 05:31:02;;;;;;;;;;;;;;;9.72;56.56;100035.78;5046621;28;19920;-76
2022/04/06 05:33:28;;;;;;;;;;;;;;;9.68;58.23;100040.19;5049469;28;19928;-76
2022/04/06 05:35:53;;;;;;;;;;;;;;;9.77;57.31;100033.91;5044223;28;19987;-76
2022/04/06 05:38:21;;;;;;;;;;;;;;;9.66;57.52;100041.13;5059590;28;19928;-76
2022/04/06 05:40:47;;;;;;;;;;;;;;;9.72;57.77;100039.19;5022091;28;19929;-78
2022/04/06 05:43:12;;;;;;;;;;;;;;;9.71;58.52;100037.50;5053753;28;19965;-76
2022/04/06 05:45:37;;;;;;;;;;;;;;;9.75;57.92;100048.66;5045065;28;19921;-76
2022/04/06 05:48:03;;;;;;;;;;;;;;;9.60;59.21;100049.09;5051256;28;19935;-76
2022/04/06 05:50:29;;;;;;;;;;;;;;;9.77;56.85;100039.94;5052655;28;20020;-76
2022/04/06 05:52:55;;;;;;;;;;;;;;;9.69;58.49;100041.88;5055195;28;20359;-78
2022/04/06 05:55:20;;;;;;;;;;;;;;;9.66;57.70;100041.97;5051657;28;19921;-79
2022/04/06 05:57:46;;;;;;;;;;;;;;;9.72;57.72;100039.19;5053730;28;19979;-76
2022/04/06 06:00:12;;;;;;;;;;;;;;;9.70;57.93;100051.38;5062613;28;20019;-78
2022/04/06 06:02:38;;;;;;;;;;;;;;;9.78;57.35;100038.19;5049694;28;19989;-78
2022/04/06 06:05:04;;;;;;;;;;;;;;;9.71;58.29;100039.25;5055829;28;19924;-78
2022/04/06 06:07:29;;;;;;;;;;;;;;;9.70;57.59;100042.72;5034849;28;19921;-78
2022/04/06 06:09:55;;;;;;;;;;;;;;;9.75;57.40;100044.28;5045522;28;20385;-76
2022/04/06 06:12:23;;;;;;;;;;;;;;;9.80;57.41;100039.00;5053578;28;20392;-78
2022/04/06 06:14:48;;;;;;;;;;;;;;;9.81;56.84;100043.28;5058428;28;20023;-78
2022/04/06 06:17:14;;;;;;;;;;;;;;;9.86;56.43;100044.00;5047098;28;20019;-78
2022/04/06 06:19:39;;;;;;;;;;;;;;;9.71;57.76;100049.63;5048423;28;20412;-76
2022/04/06 06:22:04;;;;;;;;;;;;;;;9.71;57.98;100050.47;5029938;28;19963;-76
2022/04/06 06:24:30;;;;;;;;;;;;;;;9.74;57.68;100046.94;5043889;28;19935;-76
2022/04/06 06:26:55;;;;;;;;;;;;;;;9.71;57.63;100036.66;5043003;28;19928;-76
2022/04/06 06:29:21;;;;;;;;;;;;;;;9.78;57.30;100038.19;5048813;28;20373;-79
2022/04/06 06:31:46;;;;;;;;;;;;;;;9.78;58.39;100033.84;5026975;28;19929;-76
2022/04/06 06:34:12;;;;;;;;;;;;;;;9.74;57.07;100040.03;5042019;28;19920;-76
2022/04/06 06:36:37;;;;;;;;;;;;;;;9.76;58.06;100037.38;5043146;28;19928;-76
2022/04/06 06:39:03;;;;;;;;;;;;;;;9.67;57.59;100042.81;5044820;28;19924;-76
2022/04/06 06:41:29;;;;;;;;;;;;;;;9.75;57.80;100033.91;5043278;28;19925;-76
2022/04/06 06:43:56;;;;;;;;;;;;;;;9.80;57.34;100036.41;5034372;28;19925;-76
2022/04/06 06:46:21;;;;;;;;;;;;;;;9.68;57.00;100029.81;5054118;28;19944;-77
2022/04/06 06:48:47;;;;;;;;;;;;;;;9.62;57.92;100036.94;5050881;28;20455;-78
2022/04/06 06:51:13;;;;;;;;;;;;;;;9.62;57.85;100031.75;5047820;28;19928;-78
2022/04/06 06:53:38;;;;;;;;;;;;;;;9.81;56.65;100027.72;5047432;28;19928;-78
2022/04/06 06:56:04;;;;;;;;;;;;;;;9.96;55.34;100024.69;5048848;28;19935;-78
2022/04/06 06:58:30;;;;;;;;;;;;;;;9.86;57.78;100034.47;5052462;28;19929;-77
2022/04/06 07:00:55;;;;;;;;;;;;;;;9.92;57.92;100025.69;5057634;28;19916;-78
2022/04/06 07:03:20;;;;;;;;;;;;;;;9.87;57.47;100024.91;5056089;28;20020;-78
2022/04/06 07:05:46;;;;;;;;;;;;;;;9.95;56.37;100030.78;5055502;28;20787;-78
2022/04/06 07:08:11;;;;;;;;;;;;;;;9.97;54.44;100023.78;5058194;28;19925;-78
2022/04/06 07:10:36;;;;;;;;;;;;;;;9.87;56.02;100027.53;5053173;28;19969;-78
2022/04/06 07:13:02;;;;;;;;;;;;;;;9.92;55.21;100020.50;5059321;28;19927;-79
2022/04/06 07:15:27;;;;;;;;;;;;;;;9.90;56.06;100035.25;5052774;28;19920;-78
2022/04/06 07:17:54;;;;;;;;;;;;;;;9.87;55.88;100027.53;5029949;28;20012;-78
2022/04/06 07:20:19;;;;;;;;;;;;;;;9.83;55.72;100023.34;5054153;28;19920;-78
2022/04/06 07:22:45;;;;;;;;;;;;;;;9.73;55.41;100016.72;5059628;28;19925;-76
2022/04/06 07:25:10;;;;;;;;;;;;;;;9.79;55.67;100017.38;5039406;28;19979;-78
2022/04/06 07:27:36;;;;;;;;;;;;;;;9.95;55.22;100017.81;5051958;28;20428;-78
2022/04/06 07:30:03;;;;;;;;;;;;;;;9.89;55.58;100018.84;5046841;28;19948;-78
2022/04/06 07:32:29;;;;;;;;;;;;;;;9.88;55.00;100011.06;5056219;28;20436;-76
2022/04/06 07:34:55;;;;;;;;;;;;;;;9.79;55.61;100017.38;5056149;28;19936;-78
2022/04/06 07:37:20;;;;;;;;;;;;;;;9.93;54.64;100001.44;5059364;28;19929;-78
2022/04/06 07:39:45;;;;;;;;;;;;;;;9.98;54.87;100003.91;5052039;28;19975;-79
2022/04/06 07:42:11;;;;;;;;;;;;;;;10.07;56.37;99999.28;5050835;28;19999;-78
2022/04/06 07:44:36;;;;;;;;;;;;;;;9.98;55.48;100007.34;5050420;28;19921;-76
2022/04/06 07:47:01;;;;;;;;;;;;;;;10.02;55.11;100002.91;5058907;28;20019;-78
2022/04/06 07:49:27;;;;;;;;;;;;;;;10.06;54.96;100012.28;5049380;28;20496;-78
2022/04/06 07:51:52;;;;;;;;;;;;;;;9.93;55.31;100000.59;5054437;28;19924;-77
2022/04/06 07:54:17;;;;;;;;;;;;;;;9.92;55.55;99998.91;5058979;28;19956;-78
2022/04/06 07:56:42;;;;;;;;;;;;;;;10.05;53.85;100016.63;5054974;28;19936;-79
2022/04/06 07:59:08;;;;;;;;;;;;;;;10.04;54.39;100011.50;5065008;28;19931;-78
2022/04/06 08:01:34;;;;;;;;;;;;;;;10.22;53.84;100016.13;5028394;28;19928;-78
2022/04/06 08:03:59;;;;;;;;;;;;;;;10.07;54.26;100012.25;5057863;28;20035;-78
2022/04/06 08:06:25;;;;;;;;;;;;;;;9.89;54.53;100008.47;5045614;28;20011;-79
2022/04/06 08:08:52;;;;;;;;;;;;;;;9.92;55.47;100014.47;5060594;28;19944;-78
2022/04/06 08:11:18;;;;;;;;;;;;;;;10.08;55.09;100006.16;5050537;28;19929;-78
2022/04/06 08:13:43;;;;;;;;;;;;;;;10.15;54.16;100002.47;5055004;28;20411;-78
2022/04/06 08:16:09;;;;;;;;;;;;;;;10.21;54.73;99999.69;5057716;28;19956;-76
2022/04/06 08:18:34;;;;;;;;;;;;;;;10.21;55.50;99997.09;5052643;28;20316;-76
2022/04/06 08:20:59;;;;;;;;;;;;;;;10.26;55.22;100000.38;5056705;28;19928;-78
2022/04/06 08:23:25;;;;;;;;;;;;;;;10.27;55.55;99999.50;5054104;28;19932;-78
2022/04/06 08:25:51;;;;;;;;;;;;;;;10.32;55.34;100001.94;5058091;28;19924;-78
2022/04/06 08:28:18;;;;;;;;;;;;;;;10.22;54.17;99998.81;5058562;28;19959;-78
2022/04/06 08:30:46;;;;;;;;;;;;;;;10.13;54.63;100001.69;5053419;28;20685;-76
2022/04/06 08:33:11;;;;;;;;;;;;;;;10.18;53.98;100004.13;5050524;28;20485;-78
2022/04/06 08:35:37;;;;;;;;;;;;;;;9.98;54.30;100004.75;5050312;28;19921;-78
2022/04/06 08:38:03;;;;;;;;;;;;;;;10.04;53.94;100004.56;5054499;28;20020;-78
2022/04/06 08:40:30;;;;;;;;;;;;;;;10.26;54.86;100002.97;5043024;28;20391;-78
2022/04/06 08:42:56;;;;;;;;;;;;;;;10.01;55.37;100006.41;5063580;28;19913;-78
2022/04/06 08:45:21;;;;;;;;;;;;;;;10.06;55.56;100010.53;5052592;28;19928;-76
2022/04/06 08:47:48;;;;;;;;;;;;;;;10.19;55.52;99998.91;5047618;28;20436;-76
2022/04/06 08:50:16;;;;;;;;;;;;;;;10.27;54.68;99999.50;5043236;28;20069;-76
2022/04/06 08:52:42;;;;;;;;;;;;;;;10.20;55.63;99995.38;5065596;28;20491;-78
2022/04/06 08:55:07;;;;;;;;;;;;;;;10.32;54.08;99997.59;5048941;28;19933;-78
2022/04/06 08:57:33;;;;;;;;;;;;;;;10.32;53.77;99992.41;5057890;28;20385;-78
2022/04/06 08:59:58;;;;;;;;;;;;;;;10.24;55.17;99991.81;5051342;28;20384;-76
2022/04/06 09:02:23;;;;;;;;;;;;;;;10.28;54.58;99989.97;5051381;28;20082;-76
2022/04/06 09:04:53;;;;;;;;;;;;;;;10.21;55.00;99991.91;5048553;28;20304;-76
2022/04/06 09:07:19;;;;;;;;;;;;;;;10.26;54.08;99994.34;5040694;28;20297;-78
2022/04/06 09:09:47;;;;;;;;;;;;;;;10.27;54.22;100002.09;5037945;28;19924;-78
2022/04/06 09:12:17;;;;;;;;;;;;;;;10.39;52.94;99993.91;5053304;28;20373;-78
2022/04/06 09:14:42;;;;;;;;;;;;;;;10.19;54.65;99987.66;5056514;28;20015;-79
2022/04/06 09:17:08;;;;;;;;;;;;;;;10.25;52.71;99993.50;5049488;28;20483;-76
2022/04/06 09:19:36;;;;;;;;;;;;;;;10.20;52.87;99991.94;5056208;28;19927;-78
2022/04/06 09:22:05;;;;;;;;;;;;;;;10.23;54.69;99997.88;5054507;28;19999;-78
2022/04/06 09:24:32;;;;;;;;;;;;;;;10.39;52.80;99988.72;5054987;28;19928;-76
2022/04/06 09:27:01;;;;;;;;;;;;;;;10.32;53.14;99992.41;5051950;28;19921;-76
2022/04/06 09:29:26;;;;;;;;;;;;;;;10.10;54.28;100004.38;5056625;28;20614;-78
2022/04/06 09:31:52;;;;;;;;;;;;;;;10.29;53.34;99996.84;5053944;28;19920;-78
2022/04/06 09:34:22;;;;;;;;;;;;;;;10.36;53.48;99998.34;5052193;28;20111;-78
2022/04/06 09:36:48;;;;;;;;;;;;;;;10.35;53.99;100002.69;5049628;28;19921;-78
2022/04/06 09:39:13;;;;;;;;;;;;;;;10.15;54.67;99993.84;5053668;28;20409;-78
2022/04/06 09:42:14;;;;;;;;;;;;;;;10.17;53.82;99995.47;5051422;28;20100;-78
2022/04/06 09:47:41;;;;;;;;;;;;;;;10.18;54.05;99999.78;5043556;28;19982;-78
2022/04/06 09:50:17;;;;;;;;;;;;;;;10.41;53.16;99999.91;5051235;28;20012;-78
2022/04/06 09:52:43;;;;;;;;;;;;;;;10.35;54.11;100001.84;5036723;28;19921;-78
2022/04/06 09:55:10;;;;;;;;;;;;;;;10.27;54.04;99994.31;5048189;28;20275;-78
2022/04/06 09:57:39;;;;;;;;;;;;;;;10.38;52.84;100005.19;5048377;28;19960;-78
2022/04/06 10:00:09;;;;;;;;;;;;;;;10.38;52.49;100002.59;5048123;28;19924;-76
2022/04/06 10:02:35;;;;;;;;;;;;;;;10.34;52.79;99995.78;5051709;28;19924;-78
2022/04/06 10:05:01;;;;;;;;;;;;;;;10.20;52.89;99997.97;5049455;28;19928;-78
2022/04/06 10:07:27;;;;;;;;;;;;;;;10.21;53.58;99986.72;5061141;28;20633;-78
2022/04/06 10:09:53;;;;;;;;;;;;;;;10.39;53.57;99987.88;5053144;28;19928;-78
2022/04/06 10:12:19;;;;;;;;;;;;;;;10.43;52.96;99968.69;5054667;28;19927;-78
2022/04/06 10:14:45;;;;;;;;;;;;;;;10.41;53.36;99962.69;5049975;28;19921;-78
2022/04/06 10:17:11;;;;;;;;;;;;;;;10.41;53.30;99962.69;5049416;28;20498;-78
2022/04/06 10:19:39;;;;;;;;;;;;;;;10.40;53.32;99953.22;5051096;28;19921;-78
2022/04/06 10:22:18;;;;;;;;;;;;;;;10.35;53.61;99958.56;5046967;28;19978;-78
2022/04/06 10:24:54;;;;;;;;;;;;;;;10.51;54.23;99956.31;5031567;28;20035;-78
2022/04/06 10:27:27;;;;;;;;;;;;;;;10.32;53.00;99950.88;5041151;28;19928;-78
2022/04/06 10:30:10;;;;;;;;;;;;;;;10.53;53.02;99945.84;5042182;28;19925;-78
2022/04/06 10:32:36;;;;;;;;;;;;;;;10.56;54.25;99940.56;5048146;28;20370;-79
2022/04/06 10:35:21;;;;;;;;;;;;;;;10.37;51.96;99942.94;5052279;28;19925;-78
2022/04/06 10:37:53;;;;;;;;;;;;;;;10.64;51.79;99941.16;5062703;28;19932;-78
2022/04/06 10:40:19;;;;;;;;;;;;;;;10.58;51.41;99925.78;5049475;28;19921;-78
2022/04/06 10:42:46;;;;;;;;;;;;;;;10.72;51.39;99926.16;5060697;28;19928;-78
2022/04/06 10:45:29;;;;;;;;;;;;;;;10.75;51.85;99911.31;5049363;28;19924;-78
2022/04/06 10:48:14;;;;;;;;;;;;;;;10.81;51.31;99911.09;5027890;28;20356;-78
2022/04/06 10:50:57;;;;;;;;;;;;;;;10.66;51.46;99911.63;5048844;28;19978;-78
2022/04/06 10:53:22;;;;;;;;;;;;;;;10.85;52.03;99902.28;5058254;28;19982;-79
2022/04/06 10:55:58;;;;;;;;;;;;;;;10.95;51.13;99898.47;5051584;28;20372;-78
2022/04/06 10:58:25;;;;;;;;;;;;;;;11.01;50.99;99895.63;5058610;28;20324;-76
2022/04/06 11:01:09;;;;;;;;;;;;;;;11.08;51.08;99904.06;5051790;28;19952;-78
2022/04/06 11:03:39;;;;;;;;;;;;;;;11.12;50.79;99897.81;5077374;28;20397;-77
2022/04/06 11:06:04;;;;;;;;;;;;;;;11.05;51.55;99898.13;5069819;28;20392;-77
2022/04/06 11:11:38;;;;;;;;;;;;;;;10.84;51.01;99899.75;5038585;28;19928;-77
2022/04/06 11:14:04;;;;;;;;;;;;;;;10.90;52.52;99899.53;5060267;28;19925;-77
2022/04/06 11:16:49;;;;;;;;;;;;;;;10.94;51.48;99894.16;5052078;28;19948;-78
2022/04/06 11:19:18;;;;;;;;;;;;;;;10.82;51.47;99896.38;5050197;28;19924;-75
2022/04/06 11:21:46;;;;;;;;;;;;;;;10.77;51.45;99899.09;5059594;28;19921;-75
2022/04/06 11:24:16;;;;;;;;;;;;;;;10.98;50.66;99892.28;5064503;28;20492;-75
2022/04/06 11:26:41;;;;;;;;;;;;;;;10.98;51.37;99887.09;5053837;28;20685;-75
2022/04/06 11:29:06;;;;;;;;;;;;;;;11.07;50.82;99878.97;5062557;28;20397;-75
2022/04/06 11:31:31;;;;;;;;;;;;;;;11.06;51.58;99879.84;5037619;28;20385;-78
2022/04/06 11:33:57;;;;;;;;;;;;;;;10.99;52.76;99875.81;5051549;28;19921;-77
2022/04/06 11:36:22;;;;;;;;;;;;;;;10.91;52.60;99868.28;5060608;28;19920;-77
2022/04/06 11:38:51;;;;;;;;;;;;;;;10.86;52.81;99864.16;5057911;28;20027;-77
2022/04/06 11:41:18;;;;;;;;;;;;;;;11.01;52.18;99866.19;5058740;28;20356;-77
2022/04/06 11:43:43;;;;;;;;;;;;;;;10.99;52.21;99865.41;5056824;28;20010;-77
2022/04/06 11:46:09;;;;;;;;;;;;;;;10.82;52.82;99855.63;5051861;28;20023;-77
2022/04/06 11:48:38;;;;;;;;;;;;;;;10.89;52.12;99861.44;5058977;28;19916;-77
2022/04/06 11:51:03;;;;;;;;;;;;;;;11.00;51.96;99857.53;5064685;28;20401;-77
2022/04/06 11:53:29;;;;;;;;;;;;;;;11.01;52.81;99863.59;5059422;28;19927;-77
2022/04/06 11:55:55;;;;;;;;;;;;;;;11.01;53.10;99851.47;5053118;28;19927;-77
2022/04/06 11:58:34;;;;;;;;;;;;;;;11.08;52.37;99856.44;5052460;28;19933;-75
2022/04/06 12:01:06;;;;;;;;;;;;;;;11.05;52.69;99852.19;5045460;28;20657;-75
2022/04/06 12:03:32;;;;;;;;;;;;;;;11.16;51.69;99849.19;5052072;28;20385;-77
2022/04/06 12:05:58;;;;;;;;;;;;;;;10.98;52.17;99845.53;5062359;28;19920;-77
2022/04/06 12:08:23;;;;;;;;;;;;;;;11.11;51.96;99853.72;5054666;28;19943;-77
2022/04/06 12:10:52;;;;;;;;;;;;;;;10.95;52.87;99843.88;5053974;28;19920;-77
2022/04/06 12:13:19;;;;;;;;;;;;;;;11.08;53.18;99839.09;5060678;28;20110;-77
2022/04/06 12:15:44;;;;;;;;;;;;;;;11.09;52.67;99839.94;5058879;28;19948;-78
2022/04/06 12:18:11;;;;;;;;;;;;;;;11.07;51.11;99837.38;5043982;28;19927;-75
2022/04/06 12:20:36;;;;;;;;;;;;;;;11.09;53.78;99838.16;5056271;28;19920;-77
2022/04/06 12:23:08;;;;;;;;;;;;;;;10.98;53.24;99832.53;5062235;28;19927;-77
2022/04/06 12:25:35;;;;;;;;;;;;;;;10.94;52.99;99843.94;5053762;28;19920;-75
2022/04/06 12:28:13;;;;;;;;;;;;;;;10.87;53.06;99843.34;5051787;28;20311;-77
2022/04/06 12:30:59;;;;;;;;;;;;;;;10.97;52.79;99834.28;5046395;28;19987;-77
2022/04/06 12:33:44;;;;;;;;;;;;;;;11.09;53.05;99829.53;5045464;28;19951;-76
2022/04/06 12:36:14;;;;;;;;;;;;;;;11.01;53.21;99825.47;5049157;28;19924;-77
2022/04/06 12:38:41;;;;;;;;;;;;;;;11.01;53.50;99833.25;5044724;28;19928;-77
2022/04/06 12:41:13;;;;;;;;;;;;;;;10.89;53.19;99827.66;5050423;28;19939;-77
2022/04/06 12:43:45;;;;;;;;;;;;;;;11.09;53.44;99822.56;5050953;28;19921;-77
2022/04/06 12:46:11;;;;;;;;;;;;;;;10.99;53.29;99816.03;5051317;28;19925;-77
2022/04/06 12:48:36;;;;;;;;;;;;;;;11.13;51.79;99815.50;5040637;28;19925;-75
2022/04/06 12:51:21;;;;;;;;;;;;;;;11.00;55.05;99825.50;5047370;28;20445;-77